createdAt,value
2018-02-18T00:00:35.947Z,45.80
2018-02-18T00:01:35.993Z,49.90
2018-02-18T00:02:35.936Z,52.20
2018-02-18T00:03:35.991Z,52.60
2018-02-18T00:04:35.944Z,52.60
2018-02-18T00:05:35.995Z,50.70
2018-02-18T00:06:35.936Z,48.10
2018-02-18T00:07:36.131Z,53.30
2018-02-18T00:08:35.939Z,51.40
2018-02-18T00:09:36.022Z,53.40
2018-02-18T00:10:35.935Z,49.60
2018-02-18T00:11:36.037Z,55.50
2018-02-18T00:12:35.956Z,53.00
2018-02-18T00:13:36.050Z,51.70
2018-02-18T00:14:35.962Z,45.80
2018-02-18T00:15:35.982Z,49.80
2018-02-18T00:16:35.939Z,45.80
2018-02-18T00:17:35.973Z,45.60
2018-02-18T00:18:35.964Z,48.90
2018-02-18T00:19:35.987Z,52.30
2018-02-18T00:20:35.975Z,49.30
2018-02-18T00:21:36.110Z,43.70
2018-02-18T00:22:35.993Z,47.90
2018-02-18T00:23:36.019Z,44.50
2018-02-18T00:24:35.954Z,45.90
2018-02-18T00:25:36.031Z,49.70
2018-02-18T00:26:35.952Z,50.10
2018-02-18T00:27:36.041Z,48.00
2018-02-18T00:28:35.955Z,51.70
2018-02-18T00:29:36.054Z,45.80
2018-02-18T00:30:35.962Z,53.30
2018-02-18T00:31:36.075Z,47.30
2018-02-18T00:32:35.960Z,49.20
2018-02-18T00:33:35.985Z,49.40
2018-02-18T00:34:35.965Z,46.70
2018-02-18T00:35:35.998Z,49.50
2018-02-18T00:36:35.960Z,44.90
2018-02-18T00:37:36.025Z,46.50
2018-02-18T00:38:35.975Z,45.80
2018-02-18T00:39:36.030Z,48.30
2018-02-18T00:40:35.969Z,49.30
2018-02-18T00:41:36.037Z,47.80
2018-02-18T00:42:35.972Z,47.10
2018-02-18T00:43:36.056Z,47.90
2018-02-18T00:44:35.975Z,48.30
2018-02-18T00:45:36.063Z,44.30
2018-02-18T00:46:35.977Z,47.40
2018-02-18T00:47:36.076Z,47.00
2018-02-18T00:48:35.982Z,45.30
2018-02-18T00:49:36.089Z,53.70
2018-02-18T00:50:36.024Z,50.00
2018-02-18T00:51:36.012Z,50.70
2018-02-18T00:52:35.984Z,46.40
2018-02-18T00:53:36.015Z,51.80
2018-02-18T00:54:35.989Z,48.50
2018-02-18T00:55:36.028Z,48.10
2018-02-18T00:56:35.986Z,50.30
2018-02-18T00:57:36.043Z,49.00
2018-02-18T00:58:35.990Z,50.50
2018-02-18T00:59:36.054Z,56.90
2018-02-18T01:00:35.994Z,52.80
2018-02-18T01:01:36.066Z,47.70
2018-02-18T01:02:35.997Z,46.20
2018-02-18T01:03:37.105Z,46.40
2018-02-18T01:04:35.993Z,45.40
2018-02-18T01:05:36.106Z,44.00
2018-02-18T01:06:36.009Z,50.90
2018-02-18T01:07:36.109Z,48.20
2018-02-18T01:08:36.004Z,50.30
2018-02-18T01:09:36.019Z,47.50
2018-02-18T01:10:36.006Z,47.80
2018-02-18T01:11:36.031Z,45.60
2018-02-18T01:12:36.005Z,44.50
2018-02-18T01:13:36.053Z,40.50
2018-02-18T01:14:36.022Z,43.60
2018-02-18T01:15:36.064Z,44.10
2018-02-18T01:16:36.024Z,46.50
2018-02-18T01:17:36.095Z,46.70
2018-02-18T01:18:36.011Z,45.80
2018-02-18T01:19:36.093Z,48.80
2018-02-18T01:20:36.011Z,42.50
2018-02-18T01:21:36.107Z,44.70
2018-02-18T01:22:36.016Z,43.20
2018-02-18T01:23:36.115Z,48.70
2018-02-18T01:24:36.020Z,45.90
2018-02-18T01:25:36.126Z,47.90
2018-02-18T01:26:36.014Z,50.60
2018-02-18T01:27:36.049Z,47.20
2018-02-18T01:28:36.031Z,45.90
2018-02-18T01:29:36.055Z,44.70
2018-02-18T01:30:36.019Z,46.60
2018-02-18T01:31:36.068Z,46.90
2018-02-18T01:32:36.034Z,47.10
2018-02-18T01:33:36.085Z,46.30
2018-02-18T01:34:36.036Z,48.70
2018-02-18T01:35:36.097Z,46.30
2018-02-18T01:36:36.034Z,46.00
2018-02-18T01:37:36.112Z,46.90
2018-02-18T01:38:36.040Z,46.10
2018-02-18T01:39:36.124Z,46.40
2018-02-18T01:40:36.027Z,47.80
2018-02-18T01:41:36.143Z,46.20
2018-02-18T01:42:36.036Z,49.00
2018-02-18T01:43:36.150Z,49.20
2018-02-18T01:44:36.047Z,48.40
2018-02-18T01:45:36.062Z,45.90
2018-02-18T01:46:36.038Z,50.10
2018-02-18T01:47:36.078Z,44.90
2018-02-18T01:48:36.044Z,47.30
2018-02-18T01:49:36.096Z,47.30
2018-02-18T01:50:36.046Z,46.30
2018-02-18T01:51:36.103Z,47.00
2018-02-18T01:52:36.050Z,47.70
2018-02-18T01:53:36.118Z,44.80
2018-02-18T01:54:36.052Z,45.70
2018-02-18T01:55:36.128Z,45.00
2018-02-18T01:56:36.047Z,41.50
2018-02-18T01:57:36.145Z,53.70
2018-02-18T01:58:36.052Z,47.00
2018-02-18T01:59:36.155Z,48.90
2018-02-18T02:00:36.054Z,50.50
2018-02-18T02:01:36.069Z,45.10
2018-02-18T02:02:36.061Z,41.30
2018-02-18T02:03:36.082Z,41.40
2018-02-18T02:04:36.054Z,42.60
2018-02-18T02:05:36.096Z,46.40
2018-02-18T02:06:36.058Z,47.20
2018-02-18T02:07:36.115Z,51.00
2018-02-18T02:08:36.058Z,48.90
2018-02-18T02:09:36.161Z,49.20
2018-02-18T02:10:36.065Z,51.20
2018-02-18T02:11:36.181Z,47.60
2018-02-18T02:12:36.068Z,46.10
2018-02-18T02:13:36.091Z,50.80
2018-02-18T02:14:36.068Z,42.80
2018-02-18T02:15:36.098Z,48.50
2018-02-18T02:16:36.067Z,43.70
2018-02-18T02:17:36.123Z,52.10
2018-02-18T02:18:36.094Z,45.50
2018-02-18T02:19:36.131Z,48.00
2018-02-18T02:20:36.067Z,51.10
2018-02-18T02:21:37.115Z,44.40
2018-02-18T02:22:36.066Z,50.10
2018-02-18T02:23:36.106Z,47.40
2018-02-18T02:24:36.077Z,43.90
2018-02-18T02:25:36.120Z,43.90
2018-02-18T02:26:36.083Z,51.60
2018-02-18T02:27:36.134Z,44.00
2018-02-18T02:28:36.077Z,45.00
2018-02-18T02:29:36.144Z,44.60
2018-02-18T02:30:36.074Z,43.20
2018-02-18T02:31:37.194Z,44.10
2018-02-18T02:32:36.086Z,47.50
2018-02-18T02:33:37.198Z,46.70
2018-02-18T02:34:36.082Z,46.60
2018-02-18T02:35:36.187Z,48.40
2018-02-18T02:36:36.085Z,43.90
2018-02-18T02:37:36.143Z,43.60
2018-02-18T02:38:36.081Z,48.80
2018-02-18T02:39:36.168Z,45.40
2018-02-18T02:40:36.082Z,47.00
2018-02-18T02:41:36.183Z,46.70
2018-02-18T02:42:36.090Z,50.90
2018-02-18T02:43:36.200Z,51.20
2018-02-18T02:44:36.087Z,46.30
2018-02-18T02:45:36.150Z,45.60
2018-02-18T02:46:36.110Z,45.60
2018-02-18T02:47:36.165Z,42.40
2018-02-18T02:48:36.094Z,41.40
2018-02-18T02:49:36.185Z,48.70
2018-02-18T02:50:36.103Z,47.20
2018-02-18T02:51:36.190Z,47.60
2018-02-18T02:52:36.096Z,44.10
2018-02-18T02:53:36.214Z,47.40
2018-02-18T02:54:36.098Z,44.40
2018-02-18T02:55:36.112Z,47.80
2018-02-18T02:56:36.097Z,43.50
2018-02-18T02:57:36.130Z,44.00
2018-02-18T02:58:36.096Z,43.50
2018-02-18T02:59:36.146Z,43.00
2018-02-18T03:00:36.096Z,42.40
2018-02-18T03:01:36.161Z,47.60
2018-02-18T03:02:36.105Z,44.90
2018-02-18T03:03:36.171Z,46.60
2018-02-18T03:04:36.102Z,39.90
2018-02-18T03:05:36.183Z,42.80
2018-02-18T03:06:36.249Z,45.60
2018-02-18T03:07:37.325Z,45.20
2018-02-18T03:08:36.106Z,41.30
2018-02-18T03:09:36.208Z,40.50
2018-02-18T03:10:36.110Z,44.90
2018-02-18T03:11:36.120Z,42.30
2018-02-18T03:12:36.110Z,45.20
2018-02-18T03:13:36.134Z,43.40
2018-02-18T03:14:36.105Z,47.40
2018-02-18T03:15:36.148Z,47.20
2018-02-18T03:16:36.105Z,44.90
2018-02-18T03:17:36.167Z,47.60
2018-02-18T03:18:36.116Z,41.30
2018-02-18T03:19:36.177Z,43.00
2018-02-18T03:20:36.114Z,41.60
2018-02-18T03:21:36.189Z,41.80
2018-02-18T03:22:36.244Z,48.70
2018-02-18T03:23:36.237Z,46.70
2018-02-18T03:24:36.147Z,45.40
2018-02-18T03:25:37.139Z,43.40
2018-02-18T03:26:36.130Z,44.90
2018-02-18T03:27:36.231Z,51.10
2018-02-18T03:28:36.176Z,43.90
2018-02-18T03:29:36.142Z,44.60
2018-02-18T03:30:36.121Z,46.70
2018-02-18T03:31:36.153Z,48.00
2018-02-18T03:32:36.122Z,46.80
2018-02-18T03:33:36.163Z,45.80
2018-02-18T03:34:36.124Z,46.30
2018-02-18T03:35:37.197Z,45.60
2018-02-18T03:36:36.121Z,46.90
2018-02-18T03:37:36.243Z,42.20
2018-02-18T03:38:36.131Z,41.00
2018-02-18T03:39:36.197Z,45.60
2018-02-18T03:40:36.145Z,44.50
2018-02-18T03:41:36.318Z,44.50
2018-02-18T03:42:36.132Z,38.90
2018-02-18T03:43:36.233Z,39.50
2018-02-18T03:44:36.124Z,45.70
2018-02-18T03:45:36.243Z,40.60
2018-02-18T03:46:36.130Z,44.80
2018-02-18T03:47:36.155Z,41.40
2018-02-18T03:48:36.125Z,41.90
2018-02-18T03:49:36.169Z,43.60
2018-02-18T03:50:36.129Z,43.10
2018-02-18T03:51:36.177Z,42.90
2018-02-18T03:52:36.136Z,44.40
2018-02-18T03:53:36.192Z,41.10
2018-02-18T03:54:36.135Z,41.10
2018-02-18T03:55:36.218Z,42.40
2018-02-18T03:56:36.128Z,44.50
2018-02-18T03:57:36.226Z,45.40
2018-02-18T03:58:36.143Z,43.70
2018-02-18T03:59:36.402Z,44.10
2018-02-18T04:00:36.136Z,42.40
2018-02-18T04:01:37.194Z,45.00
2018-02-18T04:02:36.141Z,42.90
2018-02-18T04:03:36.163Z,41.40
2018-02-18T04:04:36.137Z,40.20
2018-02-18T04:05:36.175Z,43.00
2018-02-18T04:06:36.138Z,46.20
2018-02-18T04:07:36.204Z,46.00
2018-02-18T04:08:36.152Z,42.20
2018-02-18T04:09:36.200Z,43.70
2018-02-18T04:10:36.138Z,43.80
2018-02-18T04:11:36.222Z,43.10
2018-02-18T04:12:36.148Z,42.00
2018-02-18T04:13:36.233Z,45.20
2018-02-18T04:14:36.145Z,43.70
2018-02-18T04:15:37.174Z,42.40
2018-02-18T04:16:36.144Z,40.80
2018-02-18T04:17:36.264Z,40.00
2018-02-18T04:18:36.165Z,39.00
2018-02-18T04:19:36.172Z,43.20
2018-02-18T04:20:36.148Z,45.20
2018-02-18T04:21:36.183Z,43.70
2018-02-18T04:22:36.144Z,43.80
2018-02-18T04:23:36.200Z,44.10
2018-02-18T04:24:36.155Z,41.10
2018-02-18T04:25:36.212Z,40.50
2018-02-18T04:26:36.148Z,43.50
2018-02-18T04:27:36.221Z,40.60
2018-02-18T04:28:36.151Z,43.40
2018-02-18T04:29:36.213Z,45.60
2018-02-18T04:30:36.154Z,42.70
2018-02-18T04:31:36.219Z,45.10
2018-02-18T04:32:36.162Z,42.70
2018-02-18T04:33:36.240Z,39.10
2018-02-18T04:34:36.182Z,43.30
2018-02-18T04:35:36.254Z,36.10
2018-02-18T04:36:36.152Z,45.30
2018-02-18T04:37:36.272Z,40.10
2018-02-18T04:38:36.153Z,43.20
2018-02-18T04:39:36.179Z,41.70
2018-02-18T04:40:36.148Z,42.70
2018-02-18T04:41:36.190Z,42.60
2018-02-18T04:42:36.155Z,42.00
2018-02-18T04:43:36.207Z,41.10
2018-02-18T04:44:36.159Z,41.90
2018-02-18T04:45:36.226Z,41.90
2018-02-18T04:46:36.159Z,43.40
2018-02-18T04:47:36.236Z,40.80
2018-02-18T04:48:36.154Z,47.10
2018-02-18T04:49:36.250Z,45.60
2018-02-18T04:50:36.174Z,41.90
2018-02-18T04:51:36.260Z,40.70
2018-02-18T04:52:36.158Z,44.60
2018-02-18T04:53:36.275Z,43.10
2018-02-18T04:54:36.166Z,40.90
2018-02-18T04:55:36.188Z,47.40
2018-02-18T04:56:36.158Z,42.40
2018-02-18T04:57:36.202Z,43.00
2018-02-18T04:58:36.164Z,43.90
2018-02-18T04:59:36.220Z,39.60
2018-02-18T05:00:36.163Z,39.70
2018-02-18T05:01:36.239Z,44.20
2018-02-18T05:02:36.171Z,44.20
2018-02-18T05:03:36.247Z,40.40
2018-02-18T05:04:36.164Z,40.30
2018-02-18T05:05:36.260Z,40.20
2018-02-18T05:06:36.167Z,39.90
2018-02-18T05:07:36.276Z,39.40
2018-02-18T05:08:36.162Z,35.60
2018-02-18T05:09:36.189Z,42.30
2018-02-18T05:10:36.164Z,40.20
2018-02-18T05:11:36.206Z,44.20
2018-02-18T05:12:36.171Z,42.80
2018-02-18T05:13:36.223Z,40.10
2018-02-18T05:14:36.172Z,42.20
2018-02-18T05:15:36.231Z,38.20
2018-02-18T05:16:36.166Z,43.60
2018-02-18T05:17:36.245Z,43.30
2018-02-18T05:18:36.166Z,41.70
2018-02-18T05:19:36.253Z,44.90
2018-02-18T05:20:36.170Z,44.00
2018-02-18T05:21:36.268Z,42.70
2018-02-18T05:22:36.173Z,43.10
2018-02-18T05:23:36.183Z,40.80
2018-02-18T05:24:36.173Z,42.90
2018-02-18T05:25:36.194Z,40.60
2018-02-18T05:26:36.173Z,40.00
2018-02-18T05:27:36.207Z,47.20
2018-02-18T05:28:36.164Z,43.30
2018-02-18T05:29:36.222Z,44.00
2018-02-18T05:30:36.168Z,41.40
2018-02-18T05:31:36.234Z,39.00
2018-02-18T05:32:36.170Z,40.70
2018-02-18T05:33:36.249Z,41.80
2018-02-18T05:34:36.172Z,40.50
2018-02-18T05:35:36.263Z,43.20
2018-02-18T05:36:36.172Z,46.90
2018-02-18T05:37:36.273Z,46.60
2018-02-18T05:38:36.177Z,50.00
2018-02-18T05:39:36.294Z,52.10
2018-02-18T05:40:36.191Z,43.90
2018-02-18T05:41:36.204Z,47.50
2018-02-18T05:42:36.175Z,44.60
2018-02-18T05:43:36.213Z,45.20
2018-02-18T05:44:36.180Z,41.70
2018-02-18T05:45:36.229Z,43.10
2018-02-18T05:46:36.178Z,41.60
2018-02-18T05:47:36.245Z,42.80
2018-02-18T05:48:36.172Z,41.40
2018-02-18T05:49:36.257Z,41.50
2018-02-18T05:50:36.198Z,37.60
2018-02-18T05:51:36.240Z,43.60
2018-02-18T05:52:36.209Z,42.20
2018-02-18T05:53:36.249Z,39.50
2018-02-18T05:54:36.179Z,39.50
2018-02-18T05:55:36.263Z,44.30
2018-02-18T05:56:36.178Z,41.80
2018-02-18T05:57:36.279Z,44.40
2018-02-18T05:58:36.182Z,45.50
2018-02-18T05:59:36.292Z,41.00
2018-02-18T06:00:36.174Z,41.80
2018-02-18T06:01:36.196Z,39.10
2018-02-18T06:02:36.176Z,40.00
2018-02-18T06:03:36.211Z,38.30
2018-02-18T06:04:36.178Z,39.90
2018-02-18T06:05:36.232Z,46.70
2018-02-18T06:06:36.183Z,42.80
2018-02-18T06:07:36.240Z,40.90
2018-02-18T06:08:36.179Z,40.10
2018-02-18T06:09:36.257Z,36.10
2018-02-18T06:10:36.185Z,39.30
2018-02-18T06:11:36.280Z,38.40
2018-02-18T06:12:36.184Z,35.70
2018-02-18T06:13:36.285Z,39.30
2018-02-18T06:14:36.183Z,41.80
2018-02-18T06:15:36.255Z,38.70
2018-02-18T06:16:36.186Z,40.00
2018-02-18T06:17:37.306Z,41.00
2018-02-18T06:18:36.180Z,38.40
2018-02-18T06:19:36.279Z,39.00
2018-02-18T06:20:36.188Z,38.80
2018-02-18T06:21:36.192Z,39.60
2018-02-18T06:22:37.219Z,38.10
2018-02-18T06:23:36.184Z,40.00
2018-02-18T06:24:36.220Z,40.00
2018-02-18T06:25:36.179Z,38.40
2018-02-18T06:26:36.220Z,36.10
2018-02-18T06:27:36.200Z,41.60
2018-02-18T06:28:36.243Z,39.70
2018-02-18T06:29:36.179Z,41.80
2018-02-18T06:30:36.244Z,39.10
2018-02-18T06:31:36.184Z,37.00
2018-02-18T06:32:36.258Z,36.00
2018-02-18T06:33:36.212Z,37.90
2018-02-18T06:34:36.268Z,38.90
2018-02-18T06:35:36.179Z,37.30
2018-02-18T06:36:36.284Z,41.90
2018-02-18T06:37:36.189Z,34.80
2018-02-18T06:38:36.195Z,36.00
2018-02-18T06:39:36.181Z,38.10
2018-02-18T06:40:36.213Z,39.40
2018-02-18T06:41:36.183Z,39.10
2018-02-18T06:42:36.226Z,41.30
2018-02-18T06:43:36.244Z,37.10
2018-02-18T06:44:36.243Z,40.30
2018-02-18T06:45:36.188Z,36.40
2018-02-18T06:46:36.261Z,35.20
2018-02-18T06:47:36.183Z,36.80
2018-02-18T06:48:36.269Z,36.50
2018-02-18T06:49:36.180Z,40.90
2018-02-18T06:50:36.275Z,38.70
2018-02-18T06:51:36.208Z,38.80
2018-02-18T06:52:36.289Z,43.00
2018-02-18T06:53:36.181Z,36.10
2018-02-18T06:54:36.207Z,38.50
2018-02-18T06:55:36.180Z,38.20
2018-02-18T06:56:36.221Z,38.60
2018-02-18T06:57:36.187Z,41.20
2018-02-18T06:58:36.241Z,42.20
2018-02-18T06:59:36.177Z,34.20
2018-02-18T07:00:36.258Z,37.00
2018-02-18T07:01:36.189Z,40.60
2018-02-18T07:02:37.287Z,37.00
2018-02-18T07:03:36.177Z,37.60
2018-02-18T07:04:36.281Z,37.80
2018-02-18T07:05:36.185Z,40.20
2018-02-18T07:06:36.294Z,37.50
2018-02-18T07:07:36.181Z,41.50
2018-02-18T07:08:36.203Z,37.00
2018-02-18T07:09:36.188Z,40.50
2018-02-18T07:10:36.217Z,39.90
2018-02-18T07:11:36.212Z,41.70
2018-02-18T07:12:36.231Z,45.10
2018-02-18T07:13:36.188Z,48.60
2018-02-18T07:14:36.244Z,47.30
2018-02-18T07:15:36.179Z,43.90
2018-02-18T07:16:36.328Z,40.60
2018-02-18T07:17:36.192Z,39.40
2018-02-18T07:18:36.254Z,42.20
2018-02-18T07:19:36.179Z,42.10
2018-02-18T07:20:36.286Z,45.30
2018-02-18T07:21:36.192Z,43.00
2018-02-18T07:22:36.277Z,44.20
2018-02-18T07:23:36.187Z,43.00
2018-02-18T07:24:37.216Z,39.40
2018-02-18T07:25:36.197Z,39.00
2018-02-18T07:26:36.304Z,43.50
2018-02-18T07:27:36.183Z,37.30
2018-02-18T07:28:37.897Z,46.60
2018-02-18T07:29:36.306Z,38.00
2018-02-18T07:30:36.184Z,39.70
2018-02-18T07:31:36.208Z,42.30
2018-02-18T07:32:36.191Z,39.10
2018-02-18T07:33:36.296Z,39.90
2018-02-18T07:34:36.174Z,43.50
2018-02-18T07:35:36.204Z,46.10
2018-02-18T07:36:36.179Z,41.80
2018-02-18T07:37:36.179Z,40.90
2018-02-18T07:38:36.182Z,41.50
2018-02-18T07:39:36.200Z,44.80
2018-02-18T07:40:36.242Z,43.30
2018-02-18T07:41:36.181Z,42.20
2018-02-18T07:42:36.252Z,46.20
2018-02-18T07:43:36.183Z,43.00
2018-02-18T07:44:36.194Z,44.30
2018-02-18T07:45:36.183Z,44.10
2018-02-18T07:46:36.183Z,46.00
2018-02-18T07:47:36.291Z,38.70
2018-02-18T07:48:36.178Z,40.80
2018-02-18T07:49:37.225Z,41.60
2018-02-18T07:50:36.211Z,43.30
2018-02-18T07:51:36.220Z,38.80
2018-02-18T07:52:36.188Z,43.70
2018-02-18T07:53:36.227Z,43.00
2018-02-18T07:54:36.180Z,48.00
2018-02-18T07:55:36.240Z,45.80
2018-02-18T07:56:36.178Z,50.70
2018-02-18T07:57:36.229Z,52.80
2018-02-18T07:58:36.184Z,48.00
2018-02-18T07:59:36.220Z,57.10
2018-02-18T08:00:36.180Z,65.40
2018-02-18T08:01:36.228Z,63.00
2018-02-18T08:02:36.180Z,59.00
2018-02-18T08:03:36.250Z,48.90
2018-02-18T08:04:36.217Z,61.90
2018-02-18T08:05:37.432Z,78.80
2018-02-18T08:06:36.231Z,68.40
2018-02-18T08:07:36.188Z,60.00
2018-02-18T08:08:36.175Z,61.10
2018-02-18T08:09:36.236Z,57.70
2018-02-18T08:10:36.207Z,52.10
2018-02-18T08:11:36.181Z,56.90
2018-02-18T08:12:36.182Z,48.80
2018-02-18T08:13:36.185Z,47.40
2018-02-18T08:14:36.184Z,47.10
2018-02-18T08:15:36.221Z,50.50
2018-02-18T08:16:36.174Z,45.50
2018-02-18T08:17:36.198Z,47.70
2018-02-18T08:18:36.183Z,42.90
2018-02-18T08:19:36.222Z,41.50
2018-02-18T08:20:36.171Z,45.40
2018-02-18T08:21:36.238Z,41.80
2018-02-18T08:22:36.174Z,39.80
2018-02-18T08:23:36.249Z,45.10
2018-02-18T08:24:36.178Z,43.50
2018-02-18T08:25:36.261Z,45.10
2018-02-18T08:26:36.178Z,42.10
2018-02-18T08:27:36.275Z,49.30
2018-02-18T08:28:36.198Z,41.20
2018-02-18T08:29:36.188Z,43.20
2018-02-18T08:30:36.177Z,38.60
2018-02-18T08:31:36.244Z,39.40
2018-02-18T08:32:36.172Z,43.00
2018-02-18T08:33:36.253Z,38.20
2018-02-18T08:34:36.175Z,41.60
2018-02-18T08:35:36.258Z,40.20
2018-02-18T08:36:36.195Z,42.40
2018-02-18T08:37:36.272Z,43.40
2018-02-18T08:38:36.175Z,40.30
2018-02-18T08:39:36.319Z,41.60
2018-02-18T08:40:36.195Z,38.60
2018-02-18T08:41:36.198Z,40.20
2018-02-18T08:42:36.179Z,43.30
2018-02-18T08:43:36.211Z,40.80
2018-02-18T08:44:36.180Z,40.30
2018-02-18T08:45:36.227Z,43.50
2018-02-18T08:46:36.179Z,39.30
2018-02-18T08:47:36.240Z,37.20
2018-02-18T08:48:36.217Z,44.80
2018-02-18T08:49:36.290Z,43.40
2018-02-18T08:50:36.185Z,43.30
2018-02-18T08:51:36.472Z,41.00
2018-02-18T08:52:36.175Z,41.50
2018-02-18T08:53:36.283Z,43.10
2018-02-18T08:54:36.170Z,39.00
2018-02-18T08:55:36.292Z,46.20
2018-02-18T08:56:36.179Z,38.50
2018-02-18T08:57:36.208Z,36.30
2018-02-18T08:58:36.182Z,38.80
2018-02-18T08:59:36.226Z,41.00
2018-02-18T09:00:36.180Z,42.70
2018-02-18T09:01:36.231Z,46.50
2018-02-18T09:02:36.188Z,44.40
2018-02-18T09:03:36.246Z,39.80
2018-02-18T09:04:36.236Z,40.50
2018-02-18T09:05:36.260Z,40.20
2018-02-18T09:06:36.177Z,45.30
2018-02-18T09:07:36.273Z,45.70
2018-02-18T09:08:36.181Z,48.50
2018-02-18T09:09:36.287Z,40.90
2018-02-18T09:10:36.177Z,42.50
2018-02-18T09:11:36.200Z,40.00
2018-02-18T09:12:36.217Z,41.10
2018-02-18T09:13:36.216Z,41.70
2018-02-18T09:14:36.182Z,36.40
2018-02-18T09:15:36.242Z,39.60
2018-02-18T09:16:36.182Z,42.20
2018-02-18T09:17:36.305Z,36.40
2018-02-18T09:18:36.184Z,36.60
2018-02-18T09:19:36.189Z,38.90
2018-02-18T09:20:36.187Z,34.60
2018-02-18T09:21:36.191Z,38.20
2018-02-18T09:22:36.182Z,38.60
2018-02-18T09:23:36.190Z,36.20
2018-02-18T09:24:36.192Z,38.10
2018-02-18T09:25:36.216Z,39.90
2018-02-18T09:26:36.188Z,37.30
2018-02-18T09:27:36.199Z,41.80
2018-02-18T09:28:36.192Z,37.20
2018-02-18T09:29:36.195Z,45.00
2018-02-18T09:30:36.201Z,35.30
2018-02-18T09:31:36.205Z,44.50
2018-02-18T09:32:36.248Z,38.70
2018-02-18T09:33:36.197Z,38.40
2018-02-18T09:34:36.207Z,42.10
2018-02-18T09:35:36.199Z,35.40
2018-02-18T09:36:36.199Z,38.40
2018-02-18T09:37:36.197Z,36.70
2018-02-18T09:38:36.198Z,36.10
2018-02-18T09:39:36.210Z,35.40
2018-02-18T09:40:36.198Z,39.30
2018-02-18T09:41:36.210Z,36.50
2018-02-18T09:42:36.197Z,39.50
2018-02-18T09:43:36.205Z,40.40
2018-02-18T09:44:36.196Z,40.60
2018-02-18T09:45:36.199Z,39.20
2018-02-18T09:46:36.204Z,39.60
2018-02-18T09:47:36.212Z,37.00
2018-02-18T09:48:36.214Z,37.00
2018-02-18T09:49:36.224Z,38.40
2018-02-18T09:50:36.202Z,39.30
2018-02-18T09:51:36.210Z,33.00
2018-02-18T09:52:36.202Z,40.90
2018-02-18T09:53:36.281Z,34.80
2018-02-18T09:54:36.212Z,40.70
2018-02-18T09:55:36.239Z,32.50
2018-02-18T09:56:36.212Z,40.60
2018-02-18T09:57:36.304Z,33.50
2018-02-18T09:58:36.222Z,37.30
2018-02-18T09:59:36.316Z,38.50
2018-02-18T10:00:36.213Z,33.70
2018-02-18T10:01:36.218Z,35.40
2018-02-18T10:02:36.214Z,35.90
2018-02-18T10:03:36.221Z,34.40
2018-02-18T10:04:36.227Z,34.60
2018-02-18T10:05:36.238Z,32.80
2018-02-18T10:06:36.223Z,34.20
2018-02-18T10:07:36.287Z,35.00
2018-02-18T10:08:36.243Z,35.20
2018-02-18T10:09:36.228Z,35.40
2018-02-18T10:10:36.307Z,38.80
2018-02-18T10:11:36.230Z,37.50
2018-02-18T10:12:36.235Z,32.80
2018-02-18T10:13:36.242Z,33.10
2018-02-18T10:14:36.230Z,33.00
2018-02-18T10:15:36.254Z,32.50
2018-02-18T10:16:36.252Z,36.40
2018-02-18T10:17:36.240Z,38.40
2018-02-18T10:18:36.231Z,41.20
2018-02-18T10:19:36.235Z,38.90
2018-02-18T10:20:36.238Z,37.80
2018-02-18T10:21:36.247Z,39.40
2018-02-18T10:22:36.241Z,34.20
2018-02-18T10:23:36.239Z,32.10
2018-02-18T10:24:36.269Z,34.10
2018-02-18T10:25:36.242Z,35.30
2018-02-18T10:26:36.252Z,38.10
2018-02-18T10:27:36.282Z,37.10
2018-02-18T10:28:37.270Z,38.00
2018-02-18T10:29:36.244Z,32.60
2018-02-18T10:30:37.283Z,37.00
2018-02-18T10:31:36.251Z,34.60
2018-02-18T10:32:36.272Z,33.30
2018-02-18T10:33:36.255Z,34.50
2018-02-18T10:34:36.297Z,39.90
2018-02-18T10:35:36.261Z,33.90
2018-02-18T10:36:36.301Z,32.30
2018-02-18T10:37:36.254Z,32.90
2018-02-18T10:38:36.312Z,31.90
2018-02-18T10:39:36.268Z,35.90
2018-02-18T10:40:36.330Z,36.40
2018-02-18T10:41:36.279Z,33.50
2018-02-18T10:42:36.338Z,33.70
2018-02-18T10:43:36.269Z,29.80
2018-02-18T10:44:36.358Z,31.20
2018-02-18T10:45:36.267Z,33.50
2018-02-18T10:46:36.368Z,39.50
2018-02-18T10:47:36.273Z,35.00
2018-02-18T10:48:36.386Z,32.60
2018-02-18T10:49:36.272Z,38.20
2018-02-18T10:50:37.323Z,37.40
2018-02-18T10:51:36.285Z,32.00
2018-02-18T10:52:37.330Z,36.10
2018-02-18T10:53:36.284Z,34.70
2018-02-18T10:54:36.320Z,36.40
2018-02-18T10:55:36.313Z,32.60
2018-02-18T10:56:36.347Z,36.30
2018-02-18T10:57:36.318Z,33.20
2018-02-18T10:58:36.349Z,29.40
2018-02-18T10:59:36.304Z,33.70
2018-02-18T11:00:36.361Z,32.30
2018-02-18T11:01:36.295Z,31.40
2018-02-18T11:02:36.391Z,32.70
2018-02-18T11:03:36.303Z,32.50
2018-02-18T11:04:36.389Z,31.20
2018-02-18T11:05:36.313Z,31.40
2018-02-18T11:06:36.401Z,30.70
2018-02-18T11:07:36.305Z,32.60
2018-02-18T11:08:36.415Z,29.40
2018-02-18T11:09:36.313Z,31.80
2018-02-18T11:10:36.329Z,27.50
2018-02-18T11:11:36.316Z,31.50
2018-02-18T11:12:36.345Z,30.70
2018-02-18T11:13:36.319Z,32.70
2018-02-18T11:14:36.358Z,33.90
2018-02-18T11:15:36.330Z,32.70
2018-02-18T11:16:36.372Z,30.70
2018-02-18T11:17:36.324Z,30.40
2018-02-18T11:18:36.385Z,32.50
2018-02-18T11:19:36.325Z,31.70
2018-02-18T11:20:36.400Z,32.70
2018-02-18T11:21:36.328Z,30.40
2018-02-18T11:22:36.414Z,29.90
2018-02-18T11:23:36.336Z,34.50
2018-02-18T11:24:37.453Z,33.00
2018-02-18T11:25:36.351Z,31.30
2018-02-18T11:26:36.435Z,34.50
2018-02-18T11:27:36.360Z,29.50
2018-02-18T11:28:37.370Z,31.70
2018-02-18T11:29:36.342Z,33.50
2018-02-18T11:30:36.465Z,32.80
2018-02-18T11:31:36.360Z,32.20
2018-02-18T11:32:36.381Z,31.00
2018-02-18T11:33:36.353Z,30.00
2018-02-18T11:34:36.386Z,31.70
2018-02-18T11:35:36.355Z,31.60
2018-02-18T11:36:36.402Z,28.40
2018-02-18T11:37:36.367Z,30.30
2018-02-18T11:38:36.443Z,30.10
2018-02-18T11:39:36.371Z,32.90
2018-02-18T11:40:36.434Z,31.30
2018-02-18T11:41:36.373Z,36.30
2018-02-18T11:42:36.441Z,30.50
2018-02-18T11:43:36.377Z,31.00
2018-02-18T11:44:38.419Z,39.40
2018-02-18T11:45:36.384Z,32.00
2018-02-18T11:46:36.469Z,30.00
2018-02-18T11:47:36.388Z,32.70
2018-02-18T11:48:36.497Z,32.50
2018-02-18T11:49:36.389Z,29.20
2018-02-18T11:50:38.443Z,31.30
2018-02-18T11:51:36.395Z,32.60
2018-02-18T11:52:36.511Z,31.10
2018-02-18T11:53:36.403Z,31.60
2018-02-18T11:54:36.418Z,34.50
2018-02-18T11:55:36.420Z,33.20
2018-02-18T11:56:36.443Z,32.60
2018-02-18T11:57:36.427Z,29.40
2018-02-18T11:58:36.460Z,33.50
2018-02-18T11:59:36.413Z,30.40
2018-02-18T12:00:36.472Z,34.20
2018-02-18T12:01:36.424Z,32.80
2018-02-18T12:02:36.489Z,36.50
2018-02-18T12:03:36.423Z,31.60
2018-02-18T12:04:36.498Z,34.50
2018-02-18T12:05:36.432Z,33.30
2018-02-18T12:06:36.524Z,27.10
2018-02-18T12:07:36.440Z,31.00
2018-02-18T12:08:36.528Z,31.70
2018-02-18T12:09:36.441Z,31.10
2018-02-18T12:10:36.595Z,33.80
2018-02-18T12:11:36.461Z,36.20
2018-02-18T12:12:36.543Z,33.50
2018-02-18T12:13:36.458Z,27.60
2018-02-18T12:14:36.571Z,30.80
2018-02-18T12:15:36.458Z,29.20
2018-02-18T12:16:36.576Z,24.70
2018-02-18T12:17:36.466Z,25.10
2018-02-18T12:18:36.484Z,27.80
2018-02-18T12:19:36.471Z,27.40
2018-02-18T12:20:36.599Z,24.80
2018-02-18T12:21:36.471Z,25.70
2018-02-18T12:22:36.534Z,26.50
2018-02-18T12:23:36.478Z,23.00
2018-02-18T12:24:36.521Z,26.80
2018-02-18T12:25:36.568Z,23.30
2018-02-18T12:26:36.540Z,22.60
2018-02-18T12:27:36.497Z,25.40
2018-02-18T12:28:36.551Z,22.50
2018-02-18T12:29:36.493Z,23.90
2018-02-18T12:30:36.565Z,25.10
2018-02-18T12:31:36.500Z,21.80
2018-02-18T12:32:36.579Z,22.30
2018-02-18T12:33:36.609Z,25.40
2018-02-18T12:34:36.616Z,22.90
2018-02-18T12:35:36.522Z,24.50
2018-02-18T12:36:36.605Z,23.50
2018-02-18T12:37:36.539Z,23.60
2018-02-18T12:38:36.616Z,25.70
2018-02-18T12:39:36.821Z,21.30
2018-02-18T12:40:36.633Z,22.90
2018-02-18T12:41:36.707Z,21.30
2018-02-18T12:42:36.535Z,26.60
2018-02-18T12:43:36.537Z,24.20
2018-02-18T12:44:36.559Z,22.40
2018-02-18T12:45:36.868Z,21.70
2018-02-18T12:46:36.596Z,20.00
2018-02-18T12:47:36.601Z,25.90
2018-02-18T12:48:36.665Z,23.30
2018-02-18T12:49:36.564Z,24.70
2018-02-18T12:50:36.742Z,22.70
2018-02-18T12:51:36.556Z,25.50
2018-02-18T12:52:36.589Z,20.80